sensor_id;sensor_type;location;lat;lon;timestamp;P1;durP1;ratioP1;P2;durP2;ratioP2
71566;SDS011;59403;47.456;19.120;2023-02-28T00:01:25;12.30;;;5.27;;
71566;SDS011;59403;47.456;19.120;2023-02-28T00:03:53;11.80;;;5.97;;
71566;SDS011;59403;47.456;19.120;2023-02-28T00:06:21;9.85;;;5.47;;
71566;SDS011;59403;47.456;19.120;2023-02-28T00:08:49;11.95;;;5.85;;
71566;SDS011;59403;47.456;19.120;2023-02-28T00:11:16;12.37;;;6.25;;
71566;SDS011;59403;47.456;19.120;2023-02-28T00:13:43;14.47;;;6.37;;
71566;SDS011;59403;47.456;19.120;2023-02-28T00:16:14;10.88;;;5.68;;
71566;SDS011;59403;47.456;19.120;2023-02-28T00:18:42;13.57;;;6.60;;
71566;SDS011;59403;47.456;19.120;2023-02-28T00:21:09;14.43;;;6.75;;
71566;SDS011;59403;47.456;19.120;2023-02-28T00:23:36;14.45;;;6.00;;
71566;SDS011;59403;47.456;19.120;2023-02-28T00:26:03;12.20;;;6.17;;
71566;SDS011;59403;47.456;19.120;2023-02-28T00:28:30;13.38;;;6.20;;
71566;SDS011;59403;47.456;19.120;2023-02-28T00:30:58;14.45;;;6.55;;
71566;SDS011;59403;47.456;19.120;2023-02-28T00:33:26;11.57;;;5.97;;
71566;SDS011;59403;47.456;19.120;2023-02-28T00:36:00;15.35;;;7.25;;
71566;SDS011;59403;47.456;19.120;2023-02-28T00:38:31;11.97;;;6.63;;
71566;SDS011;59403;47.456;19.120;2023-02-28T00:40:58;13.52;;;7.10;;
71566;SDS011;59403;47.456;19.120;2023-02-28T00:43:29;12.45;;;6.47;;
71566;SDS011;59403;47.456;19.120;2023-02-28T00:45:57;14.20;;;7.18;;
71566;SDS011;59403;47.456;19.120;2023-02-28T00:48:24;12.23;;;6.55;;
71566;SDS011;59403;47.456;19.120;2023-02-28T00:50:52;14.13;;;6.47;;
71566;SDS011;59403;47.456;19.120;2023-02-28T00:53:19;13.27;;;6.57;;
71566;SDS011;59403;47.456;19.120;2023-02-28T00:55:46;15.95;;;7.07;;
71566;SDS011;59403;47.456;19.120;2023-02-28T00:58:12;14.98;;;6.85;;
71566;SDS011;59403;47.456;19.120;2023-02-28T01:00:39;12.05;;;7.35;;
71566;SDS011;59403;47.456;19.120;2023-02-28T01:03:06;13.90;;;7.43;;
71566;SDS011;59403;47.456;19.120;2023-02-28T01:05:33;14.65;;;7.37;;
71566;SDS011;59403;47.456;19.120;2023-02-28T01:08:01;12.65;;;7.07;;
71566;SDS011;59403;47.456;19.120;2023-02-28T01:10:28;13.82;;;6.97;;
71566;SDS011;59403;47.456;19.120;2023-02-28T01:12:56;14.40;;;7.55;;
71566;SDS011;59403;47.456;19.120;2023-02-28T01:15:24;14.00;;;7.30;;
71566;SDS011;59403;47.456;19.120;2023-02-28T01:17:50;15.48;;;7.05;;
71566;SDS011;59403;47.456;19.120;2023-02-28T01:20:17;14.98;;;7.12;;
71566;SDS011;59403;47.456;19.120;2023-02-28T01:22:44;15.45;;;7.75;;
71566;SDS011;59403;47.456;19.120;2023-02-28T01:25:13;17.55;;;7.28;;
71566;SDS011;59403;47.456;19.120;2023-02-28T01:27:40;14.07;;;7.47;;
71566;SDS011;59403;47.456;19.120;2023-02-28T01:30:07;16.40;;;8.18;;
71566;SDS011;59403;47.456;19.120;2023-02-28T01:32:35;13.05;;;7.40;;
71566;SDS011;59403;47.456;19.120;2023-02-28T01:35:02;14.63;;;7.28;;
71566;SDS011;59403;47.456;19.120;2023-02-28T01:37:29;17.20;;;8.23;;
71566;SDS011;59403;47.456;19.120;2023-02-28T01:39:56;16.43;;;7.93;;
71566;SDS011;59403;47.456;19.120;2023-02-28T01:42:24;17.48;;;8.13;;
71566;SDS011;59403;47.456;19.120;2023-02-28T01:44:55;16.85;;;8.15;;
71566;SDS011;59403;47.456;19.120;2023-02-28T01:47:25;17.05;;;8.73;;
71566;SDS011;59403;47.456;19.120;2023-02-28T01:49:55;18.65;;;8.85;;
71566;SDS011;59403;47.456;19.120;2023-02-28T01:52:23;17.93;;;9.23;;
71566;SDS011;59403;47.456;19.120;2023-02-28T01:54:52;19.50;;;9.38;;
71566;SDS011;59403;47.456;19.120;2023-02-28T01:57:22;20.08;;;9.02;;
71566;SDS011;59403;47.456;19.120;2023-02-28T01:59:55;17.12;;;9.80;;
71566;SDS011;59403;47.456;19.120;2023-02-28T02:05:03;20.20;;;8.90;;
71566;SDS011;59403;47.456;19.120;2023-02-28T02:07:33;17.95;;;9.15;;
71566;SDS011;59403;47.456;19.120;2023-02-28T02:10:06;19.83;;;9.75;;
71566;SDS011;59403;47.456;19.120;2023-02-28T02:15:42;19.98;;;9.02;;
71566;SDS011;59403;47.456;19.120;2023-02-28T02:18:18;18.77;;;8.80;;
71566;SDS011;59403;47.456;19.120;2023-02-28T02:24:40;17.92;;;8.98;;
71566;SDS011;59403;47.456;19.120;2023-02-28T02:27:22;22.02;;;9.00;;
71566;SDS011;59403;47.456;19.120;2023-02-28T02:33:30;20.93;;;9.10;;
71566;SDS011;59403;47.456;19.120;2023-02-28T02:36:25;18.85;;;8.93;;
71566;SDS011;59403;47.456;19.120;2023-02-28T02:39:01;17.95;;;9.27;;
71566;SDS011;59403;47.456;19.120;2023-02-28T02:41:33;20.30;;;9.50;;
71566;SDS011;59403;47.456;19.120;2023-02-28T02:44:04;16.08;;;8.52;;
71566;SDS011;59403;47.456;19.120;2023-02-28T02:46:37;19.57;;;9.53;;
71566;SDS011;59403;47.456;19.120;2023-02-28T02:49:08;15.32;;;8.23;;
71566;SDS011;59403;47.456;19.120;2023-02-28T02:51:41;15.50;;;8.60;;
71566;SDS011;59403;47.456;19.120;2023-02-28T02:54:11;17.65;;;8.90;;
71566;SDS011;59403;47.456;19.120;2023-02-28T02:56:43;14.45;;;7.53;;
71566;SDS011;59403;47.456;19.120;2023-02-28T02:59:13;17.33;;;7.90;;
71566;SDS011;59403;47.456;19.120;2023-02-28T03:01:46;16.80;;;8.07;;
71566;SDS011;59403;47.456;19.120;2023-02-28T03:04:17;17.48;;;7.72;;
71566;SDS011;59403;47.456;19.120;2023-02-28T03:06:47;16.48;;;7.80;;
71566;SDS011;59403;47.456;19.120;2023-02-28T03:09:14;17.62;;;8.05;;
71566;SDS011;59403;47.456;19.120;2023-02-28T03:11:41;14.93;;;7.33;;
71566;SDS011;59403;47.456;19.120;2023-02-28T03:17:15;17.85;;;7.20;;
71566;SDS011;59403;47.456;19.120;2023-02-28T03:19:52;14.25;;;6.85;;
71566;SDS011;59403;47.456;19.120;2023-02-28T03:22:32;15.98;;;7.40;;
71566;SDS011;59403;47.456;19.120;2023-02-28T03:25:12;11.90;;;6.10;;
71566;SDS011;59403;47.456;19.120;2023-02-28T03:27:49;16.60;;;6.90;;
71566;SDS011;59403;47.456;19.120;2023-02-28T03:30:24;13.40;;;5.93;;
71566;SDS011;59403;47.456;19.120;2023-02-28T03:32:56;12.82;;;6.72;;
71566;SDS011;59403;47.456;19.120;2023-02-28T03:35:28;16.10;;;7.00;;
71566;SDS011;59403;47.456;19.120;2023-02-28T03:38:03;12.70;;;6.07;;
71566;SDS011;59403;47.456;19.120;2023-02-28T03:40:34;11.63;;;5.37;;
71566;SDS011;59403;47.456;19.120;2023-02-28T03:43:07;14.05;;;7.12;;
71566;SDS011;59403;47.456;19.120;2023-02-28T03:45:39;15.43;;;6.10;;
71566;SDS011;59403;47.456;19.120;2023-02-28T03:48:11;13.65;;;6.35;;
71566;SDS011;59403;47.456;19.120;2023-02-28T03:50:43;13.87;;;6.60;;
71566;SDS011;59403;47.456;19.120;2023-02-28T03:53:16;14.27;;;6.87;;
71566;SDS011;59403;47.456;19.120;2023-02-28T03:55:48;15.00;;;6.70;;
71566;SDS011;59403;47.456;19.120;2023-02-28T03:58:20;15.20;;;7.20;;
71566;SDS011;59403;47.456;19.120;2023-02-28T04:00:54;13.20;;;6.25;;
71566;SDS011;59403;47.456;19.120;2023-02-28T04:03:25;13.17;;;6.30;;
71566;SDS011;59403;47.456;19.120;2023-02-28T04:05:52;13.38;;;6.50;;
71566;SDS011;59403;47.456;19.120;2023-02-28T04:08:22;14.45;;;6.93;;
71566;SDS011;59403;47.456;19.120;2023-02-28T04:10:50;12.25;;;6.62;;
71566;SDS011;59403;47.456;19.120;2023-02-28T04:13:23;17.17;;;7.15;;
71566;SDS011;59403;47.456;19.120;2023-02-28T04:15:50;13.03;;;6.07;;
71566;SDS011;59403;47.456;19.120;2023-02-28T04:18:17;13.25;;;6.43;;
71566;SDS011;59403;47.456;19.120;2023-02-28T04:20:43;12.85;;;6.50;;
71566;SDS011;59403;47.456;19.120;2023-02-28T04:23:10;11.38;;;5.80;;
71566;SDS011;59403;47.456;19.120;2023-02-28T04:25:38;14.75;;;6.20;;
71566;SDS011;59403;47.456;19.120;2023-02-28T04:28:05;10.80;;;5.30;;
71566;SDS011;59403;47.456;19.120;2023-02-28T04:30:32;13.07;;;6.37;;
71566;SDS011;59403;47.456;19.120;2023-02-28T04:32:59;12.18;;;6.62;;
71566;SDS011;59403;47.456;19.120;2023-02-28T04:35:26;11.90;;;5.60;;
71566;SDS011;59403;47.456;19.120;2023-02-28T04:37:53;11.25;;;5.43;;
71566;SDS011;59403;47.456;19.120;2023-02-28T04:40:20;10.10;;;5.10;;
71566;SDS011;59403;47.456;19.120;2023-02-28T04:42:48;11.45;;;5.70;;
71566;SDS011;59403;47.456;19.120;2023-02-28T04:45:15;10.32;;;5.37;;
71566;SDS011;59403;47.456;19.120;2023-02-28T04:47:42;12.27;;;5.95;;
71566;SDS011;59403;47.456;19.120;2023-02-28T04:50:09;12.45;;;5.53;;
71566;SDS011;59403;47.456;19.120;2023-02-28T04:52:36;10.90;;;5.87;;
71566;SDS011;59403;47.456;19.120;2023-02-28T04:55:04;10.90;;;5.53;;
71566;SDS011;59403;47.456;19.120;2023-02-28T04:57:31;14.02;;;6.00;;
71566;SDS011;59403;47.456;19.120;2023-02-28T05:00:00;10.15;;;5.50;;
71566;SDS011;59403;47.456;19.120;2023-02-28T05:02:30;14.38;;;7.10;;
71566;SDS011;59403;47.456;19.120;2023-02-28T05:04:57;16.57;;;6.73;;
71566;SDS011;59403;47.456;19.120;2023-02-28T05:07:24;11.75;;;5.95;;
71566;SDS011;59403;47.456;19.120;2023-02-28T05:09:50;11.43;;;5.97;;
71566;SDS011;59403;47.456;19.120;2023-02-28T05:12:18;13.27;;;5.95;;
71566;SDS011;59403;47.456;19.120;2023-02-28T05:14:45;12.52;;;6.15;;
71566;SDS011;59403;47.456;19.120;2023-02-28T05:17:14;11.50;;;5.60;;
71566;SDS011;59403;47.456;19.120;2023-02-28T05:19:41;13.55;;;6.10;;
71566;SDS011;59403;47.456;19.120;2023-02-28T05:22:12;13.55;;;6.50;;
71566;SDS011;59403;47.456;19.120;2023-02-28T05:24:40;10.52;;;5.00;;
71566;SDS011;59403;47.456;19.120;2023-02-28T05:27:07;15.75;;;6.47;;
71566;SDS011;59403;47.456;19.120;2023-02-28T05:29:35;12.70;;;6.20;;
71566;SDS011;59403;47.456;19.120;2023-02-28T05:34:37;10.70;;;6.65;;
71566;SDS011;59403;47.456;19.120;2023-02-28T05:37:04;13.50;;;6.12;;
71566;SDS011;59403;47.456;19.120;2023-02-28T05:39:31;12.68;;;6.62;;
71566;SDS011;59403;47.456;19.120;2023-02-28T05:41:58;14.63;;;5.90;;
71566;SDS011;59403;47.456;19.120;2023-02-28T05:44:24;11.32;;;5.10;;
71566;SDS011;59403;47.456;19.120;2023-02-28T05:46:51;13.10;;;6.16;;
71566;SDS011;59403;47.456;19.120;2023-02-28T05:49:18;12.00;;;5.85;;
71566;SDS011;59403;47.456;19.120;2023-02-28T05:51:46;11.20;;;5.97;;
71566;SDS011;59403;47.456;19.120;2023-02-28T05:54:13;12.33;;;5.67;;
71566;SDS011;59403;47.456;19.120;2023-02-28T05:56:41;12.40;;;5.62;;
71566;SDS011;59403;47.456;19.120;2023-02-28T05:59:09;10.70;;;5.78;;
71566;SDS011;59403;47.456;19.120;2023-02-28T06:01:37;13.77;;;5.70;;
71566;SDS011;59403;47.456;19.120;2023-02-28T06:04:06;20.45;;;5.80;;
71566;SDS011;59403;47.456;19.120;2023-02-28T06:06:34;11.43;;;5.60;;
71566;SDS011;59403;47.456;19.120;2023-02-28T06:09:03;12.15;;;5.68;;
71566;SDS011;59403;47.456;19.120;2023-02-28T06:11:30;12.00;;;6.12;;
71566;SDS011;59403;47.456;19.120;2023-02-28T06:13:58;10.93;;;6.00;;
71566;SDS011;59403;47.456;19.120;2023-02-28T06:16:26;15.18;;;6.40;;
71566;SDS011;59403;47.456;19.120;2023-02-28T06:18:53;13.07;;;5.83;;
71566;SDS011;59403;47.456;19.120;2023-02-28T06:21:21;11.45;;;5.93;;
71566;SDS011;59403;47.456;19.120;2023-02-28T06:23:48;13.65;;;6.35;;
71566;SDS011;59403;47.456;19.120;2023-02-28T06:26:16;11.45;;;5.40;;
71566;SDS011;59403;47.456;19.120;2023-02-28T06:28:43;12.07;;;6.10;;
71566;SDS011;59403;47.456;19.120;2023-02-28T06:31:11;13.10;;;5.70;;
71566;SDS011;59403;47.456;19.120;2023-02-28T06:33:39;10.77;;;5.30;;
71566;SDS011;59403;47.456;19.120;2023-02-28T06:36:08;12.32;;;5.68;;
71566;SDS011;59403;47.456;19.120;2023-02-28T06:38:36;12.63;;;6.30;;
71566;SDS011;59403;47.456;19.120;2023-02-28T06:41:03;16.08;;;6.25;;
71566;SDS011;59403;47.456;19.120;2023-02-28T06:43:34;12.43;;;6.10;;
71566;SDS011;59403;47.456;19.120;2023-02-28T06:46:03;11.73;;;5.90;;
71566;SDS011;59403;47.456;19.120;2023-02-28T06:48:31;12.13;;;6.20;;
71566;SDS011;59403;47.456;19.120;2023-02-28T06:51:01;12.57;;;5.72;;
71566;SDS011;59403;47.456;19.120;2023-02-28T06:53:29;12.93;;;6.43;;
71566;SDS011;59403;47.456;19.120;2023-02-28T06:55:56;12.10;;;5.67;;
71566;SDS011;59403;47.456;19.120;2023-02-28T06:58:23;13.30;;;6.30;;
71566;SDS011;59403;47.456;19.120;2023-02-28T07:00:52;13.23;;;6.53;;
71566;SDS011;59403;47.456;19.120;2023-02-28T07:03:20;14.10;;;5.82;;
71566;SDS011;59403;47.456;19.120;2023-02-28T07:05:48;11.02;;;5.30;;
71566;SDS011;59403;47.456;19.120;2023-02-28T07:08:16;15.90;;;6.10;;
71566;SDS011;59403;47.456;19.120;2023-02-28T07:10:43;9.98;;;5.32;;
71566;SDS011;59403;47.456;19.120;2023-02-28T07:13:10;12.70;;;6.10;;
71566;SDS011;59403;47.456;19.120;2023-02-28T07:15:37;12.68;;;5.80;;
71566;SDS011;59403;47.456;19.120;2023-02-28T07:18:07;12.65;;;5.57;;
71566;SDS011;59403;47.456;19.120;2023-02-28T07:20:37;11.00;;;5.53;;
71566;SDS011;59403;47.456;19.120;2023-02-28T07:23:07;11.20;;;5.05;;
71566;SDS011;59403;47.456;19.120;2023-02-28T07:25:49;10.57;;;5.43;;
71566;SDS011;59403;47.456;19.120;2023-02-28T07:29:03;11.93;;;5.50;;
71566;SDS011;59403;47.456;19.120;2023-02-28T07:31:29;11.70;;;5.35;;
71566;SDS011;59403;47.456;19.120;2023-02-28T07:33:58;9.97;;;5.57;;
71566;SDS011;59403;47.456;19.120;2023-02-28T07:36:24;12.30;;;5.25;;
71566;SDS011;59403;47.456;19.120;2023-02-28T07:38:51;9.85;;;4.80;;
71566;SDS011;59403;47.456;19.120;2023-02-28T07:41:19;11.35;;;4.72;;
71566;SDS011;59403;47.456;19.120;2023-02-28T07:43:47;10.23;;;5.95;;
71566;SDS011;59403;47.456;19.120;2023-02-28T07:46:15;10.23;;;5.63;;
71566;SDS011;59403;47.456;19.120;2023-02-28T07:48:43;13.68;;;5.97;;
71566;SDS011;59403;47.456;19.120;2023-02-28T07:51:12;11.43;;;6.03;;
71566;SDS011;59403;47.456;19.120;2023-02-28T07:53:39;11.80;;;5.87;;
71566;SDS011;59403;47.456;19.120;2023-02-28T07:56:06;12.93;;;5.80;;
71566;SDS011;59403;47.456;19.120;2023-02-28T07:58:33;12.37;;;5.77;;
71566;SDS011;59403;47.456;19.120;2023-02-28T08:01:04;11.18;;;5.32;;
71566;SDS011;59403;47.456;19.120;2023-02-28T08:03:32;9.65;;;5.07;;
71566;SDS011;59403;47.456;19.120;2023-02-28T08:05:59;11.52;;;5.43;;
71566;SDS011;59403;47.456;19.120;2023-02-28T08:08:28;9.48;;;5.25;;
71566;SDS011;59403;47.456;19.120;2023-02-28T08:10:57;11.83;;;5.40;;
71566;SDS011;59403;47.456;19.120;2023-02-28T08:13:24;8.93;;;4.70;;
71566;SDS011;59403;47.456;19.120;2023-02-28T08:15:52;12.18;;;5.35;;
71566;SDS011;59403;47.456;19.120;2023-02-28T08:18:19;13.05;;;5.28;;
71566;SDS011;59403;47.456;19.120;2023-02-28T08:20:46;10.23;;;4.95;;
71566;SDS011;59403;47.456;19.120;2023-02-28T08:23:13;11.97;;;5.10;;
71566;SDS011;59403;47.456;19.120;2023-02-28T08:25:41;10.50;;;4.82;;
71566;SDS011;59403;47.456;19.120;2023-02-28T08:28:08;10.88;;;5.30;;
71566;SDS011;59403;47.456;19.120;2023-02-28T08:30:35;10.55;;;4.35;;
71566;SDS011;59403;47.456;19.120;2023-02-28T08:33:02;9.80;;;4.60;;
71566;SDS011;59403;47.456;19.120;2023-02-28T08:35:29;10.03;;;4.53;;
71566;SDS011;59403;47.456;19.120;2023-02-28T08:37:56;9.55;;;4.70;;
71566;SDS011;59403;47.456;19.120;2023-02-28T08:40:23;10.60;;;5.10;;
71566;SDS011;59403;47.456;19.120;2023-02-28T08:42:51;10.95;;;4.82;;
71566;SDS011;59403;47.456;19.120;2023-02-28T08:45:18;11.40;;;5.12;;
71566;SDS011;59403;47.456;19.120;2023-02-28T08:47:45;9.57;;;5.00;;
71566;SDS011;59403;47.456;19.120;2023-02-28T08:50:12;9.18;;;4.50;;
71566;SDS011;59403;47.456;19.120;2023-02-28T08:52:41;9.18;;;5.10;;
71566;SDS011;59403;47.456;19.120;2023-02-28T08:55:09;12.93;;;5.62;;
71566;SDS011;59403;47.456;19.120;2023-02-28T08:57:36;10.13;;;5.07;;
71566;SDS011;59403;47.456;19.120;2023-02-28T09:00:04;10.30;;;5.30;;
71566;SDS011;59403;47.456;19.120;2023-02-28T09:02:33;13.77;;;5.25;;
71566;SDS011;59403;47.456;19.120;2023-02-28T09:05:00;10.13;;;5.35;;
71566;SDS011;59403;47.456;19.120;2023-02-28T09:07:28;9.35;;;4.75;;
71566;SDS011;59403;47.456;19.120;2023-02-28T09:09:55;11.60;;;5.10;;
71566;SDS011;59403;47.456;19.120;2023-02-28T09:12:23;10.63;;;4.50;;
71566;SDS011;59403;47.456;19.120;2023-02-28T09:14:51;9.63;;;4.65;;
71566;SDS011;59403;47.456;19.120;2023-02-28T09:17:20;10.75;;;4.95;;
71566;SDS011;59403;47.456;19.120;2023-02-28T09:19:47;10.55;;;4.72;;
71566;SDS011;59403;47.456;19.120;2023-02-28T09:22:15;11.43;;;5.43;;
71566;SDS011;59403;47.456;19.120;2023-02-28T09:24:42;10.73;;;5.20;;
71566;SDS011;59403;47.456;19.120;2023-02-28T09:27:09;9.52;;;4.95;;
71566;SDS011;59403;47.456;19.120;2023-02-28T09:29:36;10.18;;;5.07;;
71566;SDS011;59403;47.456;19.120;2023-02-28T09:32:03;8.80;;;4.85;;
71566;SDS011;59403;47.456;19.120;2023-02-28T09:34:32;11.60;;;4.43;;
71566;SDS011;59403;47.456;19.120;2023-02-28T09:36:59;12.50;;;5.23;;
71566;SDS011;59403;47.456;19.120;2023-02-28T09:39:27;10.43;;;4.93;;
71566;SDS011;59403;47.456;19.120;2023-02-28T09:41:55;9.55;;;4.60;;
71566;SDS011;59403;47.456;19.120;2023-02-28T09:44:24;10.48;;;4.70;;
71566;SDS011;59403;47.456;19.120;2023-02-28T09:46:56;8.35;;;4.12;;
71566;SDS011;59403;47.456;19.120;2023-02-28T09:49:28;10.70;;;5.53;;
71566;SDS011;59403;47.456;19.120;2023-02-28T09:52:01;10.27;;;5.70;;
71566;SDS011;59403;47.456;19.120;2023-02-28T09:54:31;12.40;;;5.20;;
71566;SDS011;59403;47.456;19.120;2023-02-28T09:56:59;8.85;;;4.72;;
71566;SDS011;59403;47.456;19.120;2023-02-28T09:59:35;10.45;;;4.40;;
71566;SDS011;59403;47.456;19.120;2023-02-28T10:02:21;8.63;;;4.40;;
71566;SDS011;59403;47.456;19.120;2023-02-28T10:05:07;9.23;;;4.00;;
71566;SDS011;59403;47.456;19.120;2023-02-28T10:07:42;9.70;;;5.40;;
71566;SDS011;59403;47.456;19.120;2023-02-28T10:10:25;8.35;;;4.50;;
71566;SDS011;59403;47.456;19.120;2023-02-28T10:12:57;9.63;;;4.97;;
71566;SDS011;59403;47.456;19.120;2023-02-28T10:15:27;10.10;;;4.80;;
71566;SDS011;59403;47.456;19.120;2023-02-28T10:17:57;9.98;;;4.75;;
71566;SDS011;59403;47.456;19.120;2023-02-28T10:20:30;11.07;;;5.22;;
71566;SDS011;59403;47.456;19.120;2023-02-28T10:23:02;9.73;;;4.80;;
71566;SDS011;59403;47.456;19.120;2023-02-28T10:25:36;11.75;;;5.60;;
71566;SDS011;59403;47.456;19.120;2023-02-28T10:28:08;8.87;;;5.13;;
71566;SDS011;59403;47.456;19.120;2023-02-28T10:30:38;10.70;;;5.00;;
71566;SDS011;59403;47.456;19.120;2023-02-28T10:33:08;9.57;;;4.93;;
71566;SDS011;59403;47.456;19.120;2023-02-28T10:35:46;11.15;;;5.18;;
71566;SDS011;59403;47.456;19.120;2023-02-28T10:38:15;8.32;;;5.12;;
71566;SDS011;59403;47.456;19.120;2023-02-28T10:40:44;9.23;;;4.57;;
71566;SDS011;59403;47.456;19.120;2023-02-28T10:43:18;9.73;;;5.30;;
71566;SDS011;59403;47.456;19.120;2023-02-28T10:45:54;9.07;;;5.00;;
71566;SDS011;59403;47.456;19.120;2023-02-28T10:50:56;10.02;;;5.18;;
71566;SDS011;59403;47.456;19.120;2023-02-28T10:53:28;10.53;;;5.43;;
71566;SDS011;59403;47.456;19.120;2023-02-28T10:56:02;8.45;;;5.07;;
71566;SDS011;59403;47.456;19.120;2023-02-28T10:58:33;9.32;;;5.20;;
71566;SDS011;59403;47.456;19.120;2023-02-28T11:01:14;10.82;;;5.10;;
71566;SDS011;59403;47.456;19.120;2023-02-28T11:03:42;12.07;;;5.50;;
71566;SDS011;59403;47.456;19.120;2023-02-28T11:06:15;8.73;;;5.03;;
71566;SDS011;59403;47.456;19.120;2023-02-28T11:08:45;8.95;;;5.00;;
71566;SDS011;59403;47.456;19.120;2023-02-28T11:11:15;10.85;;;5.25;;
71566;SDS011;59403;47.456;19.120;2023-02-28T11:13:44;10.95;;;5.10;;
71566;SDS011;59403;47.456;19.120;2023-02-28T11:16:13;9.02;;;4.65;;
71566;SDS011;59403;47.456;19.120;2023-02-28T11:18:42;8.37;;;5.07;;
71566;SDS011;59403;47.456;19.120;2023-02-28T11:21:32;10.20;;;5.62;;
71566;SDS011;59403;47.456;19.120;2023-02-28T11:24:05;12.13;;;6.35;;
71566;SDS011;59403;47.456;19.120;2023-02-28T11:26:43;9.80;;;4.97;;
71566;SDS011;59403;47.456;19.120;2023-02-28T11:29:12;9.57;;;4.90;;
71566;SDS011;59403;47.456;19.120;2023-02-28T11:31:49;10.27;;;4.90;;
71566;SDS011;59403;47.456;19.120;2023-02-28T11:34:28;11.38;;;4.68;;
71566;SDS011;59403;47.456;19.120;2023-02-28T11:36:58;9.43;;;4.60;;
71566;SDS011;59403;47.456;19.120;2023-02-28T11:39:31;8.93;;;4.90;;
71566;SDS011;59403;47.456;19.120;2023-02-28T11:42:08;8.63;;;4.68;;
71566;SDS011;59403;47.456;19.120;2023-02-28T11:44:47;10.40;;;4.80;;
71566;SDS011;59403;47.456;19.120;2023-02-28T11:47:30;8.38;;;4.60;;
71566;SDS011;59403;47.456;19.120;2023-02-28T11:50:04;10.05;;;4.68;;
71566;SDS011;59403;47.456;19.120;2023-02-28T11:52:55;9.52;;;4.35;;
71566;SDS011;59403;47.456;19.120;2023-02-28T11:55:27;11.10;;;4.40;;
71566;SDS011;59403;47.456;19.120;2023-02-28T12:01:13;10.32;;;4.97;;
71566;SDS011;59403;47.456;19.120;2023-02-28T12:03:54;11.75;;;4.95;;
71566;SDS011;59403;47.456;19.120;2023-02-28T12:06:30;9.48;;;4.40;;
71566;SDS011;59403;47.456;19.120;2023-02-28T12:09:08;8.73;;;4.10;;
71566;SDS011;59403;47.456;19.120;2023-02-28T12:11:58;7.37;;;3.43;;
71566;SDS011;59403;47.456;19.120;2023-02-28T12:14:43;7.18;;;3.53;;
71566;SDS011;59403;47.456;19.120;2023-02-28T12:17:40;5.85;;;3.15;;
71566;SDS011;59403;47.456;19.120;2023-02-28T12:20:18;6.47;;;3.58;;
71566;SDS011;59403;47.456;19.120;2023-02-28T12:22:55;6.78;;;3.12;;
71566;SDS011;59403;47.456;19.120;2023-02-28T12:28:35;8.32;;;3.37;;
71566;SDS011;59403;47.456;19.120;2023-02-28T12:31:09;6.30;;;3.45;;
71566;SDS011;59403;47.456;19.120;2023-02-28T12:33:41;7.18;;;3.53;;
71566;SDS011;59403;47.456;19.120;2023-02-28T12:36:12;5.93;;;3.78;;
71566;SDS011;59403;47.456;19.120;2023-02-28T12:38:44;6.80;;;4.10;;
71566;SDS011;59403;47.456;19.120;2023-02-28T12:41:18;9.38;;;3.62;;
71566;SDS011;59403;47.456;19.120;2023-02-28T12:43:50;6.57;;;3.70;;
71566;SDS011;59403;47.456;19.120;2023-02-28T12:46:22;5.37;;;3.72;;
71566;SDS011;59403;47.456;19.120;2023-02-28T12:51:24;6.93;;;3.60;;
71566;SDS011;59403;47.456;19.120;2023-02-28T12:53:57;6.65;;;3.62;;
71566;SDS011;59403;47.456;19.120;2023-02-28T12:56:35;7.60;;;3.53;;
71566;SDS011;59403;47.456;19.120;2023-02-28T12:59:15;9.05;;;4.07;;
71566;SDS011;59403;47.456;19.120;2023-02-28T13:07:47;7.03;;;3.83;;
71566;SDS011;59403;47.456;19.120;2023-02-28T13:10:39;7.15;;;4.50;;
71566;SDS011;59403;47.456;19.120;2023-02-28T13:13:11;7.70;;;3.70;;
71566;SDS011;59403;47.456;19.120;2023-02-28T13:15:49;7.87;;;4.55;;
71566;SDS011;59403;47.456;19.120;2023-02-28T13:18:29;8.23;;;4.33;;
71566;SDS011;59403;47.456;19.120;2023-02-28T13:20:58;8.05;;;4.97;;
71566;SDS011;59403;47.456;19.120;2023-02-28T13:29:33;7.15;;;3.90;;
71566;SDS011;59403;47.456;19.120;2023-02-28T13:38:25;10.93;;;4.57;;
71566;SDS011;59403;47.456;19.120;2023-02-28T13:44:05;8.90;;;4.18;;
71566;SDS011;59403;47.456;19.120;2023-02-28T13:46:35;8.37;;;3.57;;
71566;SDS011;59403;47.456;19.120;2023-02-28T13:49:18;8.05;;;3.80;;
71566;SDS011;59403;47.456;19.120;2023-02-28T13:51:46;7.60;;;3.80;;
71566;SDS011;59403;47.456;19.120;2023-02-28T13:54:24;8.93;;;4.15;;
71566;SDS011;59403;47.456;19.120;2023-02-28T13:57:06;9.10;;;3.97;;
71566;SDS011;59403;47.456;19.120;2023-02-28T13:59:46;8.07;;;3.70;;
71566;SDS011;59403;47.456;19.120;2023-02-28T14:02:36;8.20;;;3.80;;
71566;SDS011;59403;47.456;19.120;2023-02-28T14:05:13;8.43;;;3.83;;
71566;SDS011;59403;47.456;19.120;2023-02-28T14:07:44;6.10;;;3.65;;
71566;SDS011;59403;47.456;19.120;2023-02-28T14:10:22;7.28;;;4.03;;
71566;SDS011;59403;47.456;19.120;2023-02-28T14:12:57;9.50;;;3.60;;
71566;SDS011;59403;47.456;19.120;2023-02-28T14:15:40;8.32;;;3.92;;
71566;SDS011;59403;47.456;19.120;2023-02-28T14:18:17;9.80;;;4.22;;
71566;SDS011;59403;47.456;19.120;2023-02-28T14:20:49;7.95;;;4.03;;
71566;SDS011;59403;47.456;19.120;2023-02-28T14:23:25;9.75;;;4.50;;
71566;SDS011;59403;47.456;19.120;2023-02-28T14:26:14;6.63;;;3.67;;
71566;SDS011;59403;47.456;19.120;2023-02-28T14:28:59;6.75;;;3.95;;
71566;SDS011;59403;47.456;19.120;2023-02-28T14:31:40;8.15;;;4.55;;
71566;SDS011;59403;47.456;19.120;2023-02-28T14:34:24;7.12;;;4.03;;
71566;SDS011;59403;47.456;19.120;2023-02-28T14:37:01;8.13;;;4.35;;
71566;SDS011;59403;47.456;19.120;2023-02-28T14:39:29;7.07;;;3.90;;
71566;SDS011;59403;47.456;19.120;2023-02-28T14:41:57;7.87;;;4.12;;
71566;SDS011;59403;47.456;19.120;2023-02-28T14:44:28;6.75;;;4.30;;
71566;SDS011;59403;47.456;19.120;2023-02-28T14:46:56;11.00;;;4.50;;
71566;SDS011;59403;47.456;19.120;2023-02-28T14:49:26;8.48;;;5.28;;
71566;SDS011;59403;47.456;19.120;2023-02-28T14:52:01;12.13;;;5.17;;
71566;SDS011;59403;47.456;19.120;2023-02-28T14:54:34;9.70;;;5.10;;
71566;SDS011;59403;47.456;19.120;2023-02-28T14:57:02;15.82;;;6.10;;
71566;SDS011;59403;47.456;19.120;2023-02-28T14:59:31;8.35;;;4.62;;
71566;SDS011;59403;47.456;19.120;2023-02-28T15:02:16;13.02;;;5.80;;
71566;SDS011;59403;47.456;19.120;2023-02-28T15:04:53;12.47;;;5.10;;
71566;SDS011;59403;47.456;19.120;2023-02-28T15:07:22;11.10;;;5.25;;
71566;SDS011;59403;47.456;19.120;2023-02-28T15:10:06;12.35;;;6.15;;
71566;SDS011;59403;47.456;19.120;2023-02-28T15:12:34;10.43;;;5.47;;
71566;SDS011;59403;47.456;19.120;2023-02-28T15:15:02;10.93;;;5.78;;
71566;SDS011;59403;47.456;19.120;2023-02-28T15:17:29;9.00;;;4.70;;
71566;SDS011;59403;47.456;19.120;2023-02-28T15:19:58;8.95;;;5.15;;
71566;SDS011;59403;47.456;19.120;2023-02-28T15:22:27;9.10;;;5.40;;
71566;SDS011;59403;47.456;19.120;2023-02-28T15:24:56;13.23;;;5.70;;
71566;SDS011;59403;47.456;19.120;2023-02-28T15:27:24;10.73;;;5.35;;
71566;SDS011;59403;47.456;19.120;2023-02-28T15:29:54;12.77;;;5.17;;
71566;SDS011;59403;47.456;19.120;2023-02-28T15:32:24;10.40;;;5.57;;
71566;SDS011;59403;47.456;19.120;2023-02-28T15:34:54;8.15;;;4.50;;
71566;SDS011;59403;47.456;19.120;2023-02-28T15:37:30;9.82;;;4.90;;
71566;SDS011;59403;47.456;19.120;2023-02-28T15:40:10;9.57;;;5.10;;